Terminal Aerodrome Forecast
Issued by NWS

Home | Current Version | Previous Version | Text Only | Print | Product List | Glossary On
Versions: 1 2 3 4 5 6 7 8 9 10 11 12 13 14 15 16
637
FTPA31 PHFO 031123
TAFHOG
TAF
PHOG 031123Z 0312/0412 15005KT P6SM FEW030 SCT050
     FM032000 35008KT P6SM VCSH FEW030 BKN050
     FM040500 15005KT P6SM FEW030 SCT050 BKN100
      AMD LTD TO VIS AND WIND TIL 031600=

USA.gov is the U.S. government's official web portal to all federal, state and local government web resources and services.